Time;durP1;ratioP1;P1;durP2;ratioP2;P2;SDS_P1;SDS_P2;PMS_P1;PMS_P2;Temp;Humidity;BMP_temperature;BMP_pressure;BME280_temperature;BME280_humidity;BME280_pressure;Samples;Min_cycle;Max_cycle;Signal;HPM_P1;HPM_P2
2021/12/27 00:00:51;;;;;;;28.73;21.42;;;;;;;5.09;89.43;99247.50;5067251;28;20453;-87
2021/12/27 00:03:17;;;;;;;28.87;21.67;;;;;;;5.04;89.51;99250.91;5044094;28;20488;-87
2021/12/27 00:05:42;;;;;;;27.87;21.33;;;;;;;5.01;89.32;99254.06;5050892;28;20886;-87
2021/12/27 00:08:08;;;;;;;28.60;20.53;;;;;;;5.00;89.95;99254.31;5059375;28;20400;-87
2021/12/27 00:10:33;;;;;;;25.43;19.20;;;;;;;5.00;89.60;99252.44;5055857;28;20447;-87
2021/12/27 00:12:58;;;;;;;29.90;21.37;;;;;;;5.04;89.66;99256.28;5046511;28;20406;-87
2021/12/27 00:15:25;;;;;;;24.70;18.77;;;;;;;5.05;89.85;99260.59;5047420;28;20960;-87
2021/12/27 00:17:51;;;;;;;26.57;20.20;;;;;;;5.05;89.53;99252.53;5055511;28;20417;-87
2021/12/27 00:20:18;;;;;;;25.43;19.03;;;;;;;5.09;89.17;99255.56;5038879;28;20929;-87
2021/12/27 00:22:47;;;;;;;25.58;19.85;;;;;;;5.05;89.34;99254.41;5036877;28;20445;-86
2021/12/27 00:25:14;;;;;;;24.83;19.17;;;;;;;5.05;89.90;99251.72;5050587;28;20483;-87
2021/12/27 00:27:41;;;;;;;26.30;19.88;;;;;;;5.07;89.64;99255.00;5045506;28;20531;-87
2021/12/27 00:30:07;;;;;;;30.13;20.65;;;;;;;5.07;89.46;99250.41;5042116;28;20411;-87
2021/12/27 00:32:36;;;;;;;26.67;19.42;;;;;;;5.10;89.17;99238.41;5049998;28;20391;-86
2021/12/27 00:35:03;;;;;;;23.50;18.98;;;;;;;5.12;89.09;99230.91;5066018;28;20508;-87
2021/12/27 00:37:28;;;;;;;24.38;18.52;;;;;;;5.10;89.08;99266.06;5046466;28;20736;-86
2021/12/27 00:39:53;;;;;;;26.77;19.17;;;;;;;5.00;89.70;99254.31;5049611;28;20421;-87
2021/12/27 00:42:18;;;;;;;26.77;20.17;;;;;;;5.03;89.36;99260.03;5060515;28;20482;-87
2021/12/27 00:44:43;;;;;;;24.30;19.17;;;;;;;4.99;89.50;99250.81;5060764;28;20451;-87
2021/12/27 00:47:09;;;;;;;22.80;17.93;;;;;;;4.92;89.69;99255.50;5050127;28;20418;-86
2021/12/27 00:49:34;;;;;;;22.17;17.50;;;;;;;4.85;89.81;99260.19;5056625;28;20876;-87
2021/12/27 00:52:01;;;;;;;23.73;18.90;;;;;;;4.91;90.35;99250.34;5038441;28;20396;-86
2021/12/27 00:54:26;;;;;;;23.92;19.50;;;;;;;4.96;90.07;99240.56;5052725;28;20529;-87
2021/12/27 00:56:51;;;;;;;23.10;18.98;;;;;;;5.05;89.40;99239.13;5062921;28;20496;-87
2021/12/27 00:59:17;;;;;;;22.03;17.83;;;;;;;5.12;89.03;99249.72;5049863;28;20409;-87
2021/12/27 01:01:42;;;;;;;25.60;18.33;;;;;;;5.13;88.98;99249.50;5060003;28;20500;-87
2021/12/27 01:04:08;;;;;;;25.53;19.07;;;;;;;5.15;88.73;99241.19;5056476;28;20503;-87
2021/12/27 01:06:33;;;;;;;23.37;18.07;;;;;;;5.14;89.04;99242.22;5046884;28;20399;-87
2021/12/27 01:08:59;;;;;;;21.55;17.08;;;;;;;5.05;89.12;99255.22;5053514;28;20889;-87
2021/12/27 01:11:35;;;;;;;21.30;17.05;;;;;;;5.04;89.87;99252.75;5056154;28;20406;-87
2021/12/27 01:14:08;;;;;;;21.90;17.47;;;;;;;5.10;89.03;99249.94;5038992;28;20439;-87
2021/12/27 01:16:33;;;;;;;21.80;17.02;;;;;;;5.12;88.94;99247.84;5036494;28;20405;-87
2021/12/27 01:18:59;;;;;;;20.30;16.67;;;;;;;5.13;89.13;99256.72;5045616;28;20393;-88
2021/12/27 01:21:25;;;;;;;22.67;17.77;;;;;;;5.07;89.22;99263.06;5044569;28;20492;-88
2021/12/27 01:23:52;;;;;;;24.47;18.07;;;;;;;5.06;89.69;99262.22;5059029;28;20751;-88
2021/12/27 01:26:17;;;;;;;29.13;18.80;;;;;;;5.09;89.38;99267.13;5063898;28;20397;-88
2021/12/27 01:28:43;;;;;;;25.70;18.83;;;;;;;5.12;89.17;99257.78;5049092;28;20745;-87
2021/12/27 01:31:10;;;;;;;26.23;18.23;;;;;;;5.09;89.16;99252.88;5044976;28;20391;-88
2021/12/27 01:33:37;;;;;;;28.10;18.95;;;;;;;5.06;89.67;99250.69;5047002;28;20925;-87
2021/12/27 01:36:05;;;;;;;26.02;19.63;;;;;;;5.02;89.34;99252.19;5047792;28;20814;-87
2021/12/27 01:38:30;;;;;;;25.75;18.15;;;;;;;5.01;89.36;99253.25;5057241;28;20478;-88
2021/12/27 01:40:57;;;;;;;24.70;17.63;;;;;;;5.03;89.33;99257.34;5053190;28;20815;-87
2021/12/27 01:43:25;;;;;;;36.47;20.67;;;;;;;5.04;89.73;99261.63;5060270;28;20455;-88
2021/12/27 01:45:54;;;;;;;28.30;19.17;;;;;;;5.05;89.65;99260.59;5049805;28;20638;-88
2021/12/27 01:48:23;;;;;;;40.85;21.30;;;;;;;5.02;89.77;99250.34;5064898;28;20388;-87
2021/12/27 01:50:51;;;;;;;33.00;19.93;;;;;;;5.05;90.00;99254.41;5058312;28;20407;-87
2021/12/27 01:53:17;;;;;;;29.05;18.88;;;;;;;5.07;89.87;99242.38;5041246;28;20440;-88
2021/12/27 01:55:43;;;;;;;32.27;20.37;;;;;;;5.07;89.58;99242.38;5042403;28;20413;-89
2021/12/27 01:58:09;;;;;;;38.17;21.40;;;;;;;5.06;89.91;99237.25;5050989;28;20410;-89
2021/12/27 02:00:37;;;;;;;30.92;21.02;;;;;;;5.08;89.86;99227.06;5050604;28;20412;-88
2021/12/27 02:03:04;;;;;;;35.65;21.80;;;;;;;5.04;89.70;99232.09;5066892;28;20400;-89
2021/12/27 02:05:31;;;;;;;33.67;20.50;;;;;;;5.03;89.95;99222.44;5058249;28;20820;-88
2021/12/27 02:07:56;;;;;;;37.60;20.77;;;;;;;5.03;89.93;99211.69;5062469;28;20389;-88
2021/12/27 02:10:21;;;;;;;52.57;23.73;;;;;;;5.01;90.14;99219.16;5062834;28;20421;-89
2021/12/27 02:12:47;;;;;;;55.73;25.97;;;;;;;5.00;90.17;99219.41;5052869;28;20399;-88
2021/12/27 02:15:13;;;;;;;63.67;26.90;;;;;;;5.00;90.23;99217.56;5034136;28;20412;-87
2021/12/27 02:17:43;;;;;;;71.72;27.05;;;;;;;5.02;90.20;99217.28;5054532;28;20401;-87
2021/12/27 02:20:23;;;;;;;50.08;25.90;;;;;;;5.03;90.10;99217.06;5056311;28;20417;-87
2021/12/27 02:22:49;;;;;;;58.25;26.83;;;;;;;5.01;90.37;99221.03;5043955;28;20757;-88
2021/12/27 02:25:15;;;;;;;98.65;28.30;;;;;;;5.01;90.19;99221.84;5043973;28;20399;-86
2021/12/27 02:27:43;;;;;;;98.15;29.30;;;;;;;5.03;90.38;99222.44;5053558;28;20393;-87
2021/12/27 02:30:11;;;;;;;60.60;26.70;;;;;;;5.07;90.19;99220.88;5045305;28;20447;-87
2021/12/27 02:33:03;;;;;;;153.73;31.70;;;;;;;5.08;90.33;99221.69;5041516;28;20395;-87
2021/12/27 02:35:31;;;;;;;123.07;30.00;;;;;;;5.14;90.17;99218.06;5048902;28;20483;-87
2021/12/27 02:37:59;;;;;;;191.60;31.87;;;;;;;5.14;89.93;99216.19;5055519;28;20413;-87
2021/12/27 02:40:26;;;;;;;153.77;35.15;;;;;;;5.16;90.43;99214.09;5050201;28;20503;-86
2021/12/27 02:42:58;;;;;;;87.70;30.08;;;;;;;5.17;90.57;99210.34;5062388;28;20397;-87
2021/12/27 02:45:25;;;;;;;75.68;28.77;;;;;;;5.15;90.36;99208.94;5045502;28;20901;-87
2021/12/27 02:47:51;;;;;;;85.07;29.58;;;;;;;5.18;90.12;99211.16;5049190;28;20411;-87
2021/12/27 02:50:17;;;;;;;153.90;34.85;;;;;;;5.17;90.33;99207.66;5062686;28;20401;-87
2021/12/27 02:52:42;;;;;;;82.00;28.83;;;;;;;5.17;90.60;99202.28;5051105;28;20894;-88
2021/12/27 02:55:07;;;;;;;118.33;32.17;;;;;;;5.17;90.66;99196.13;5045477;28;20409;-88
2021/12/27 02:57:33;;;;;;;94.03;31.17;;;;;;;5.17;90.35;99198.81;5059902;28;20453;-87
2021/12/27 03:00:00;;;;;;;104.00;31.13;;;;;;;5.16;90.41;99191.78;5049482;28;20415;-88
2021/12/27 03:02:26;;;;;;;128.70;31.00;;;;;;;5.15;90.66;99196.34;5042369;28;20478;-87
2021/12/27 03:04:51;;;;;;;91.55;29.45;;;;;;;5.15;90.47;99198.22;5060515;28;20488;-87
2021/12/27 03:07:16;;;;;;;87.83;29.73;;;;;;;5.16;90.67;99197.16;5039082;28;20440;-87
2021/12/27 03:09:41;;;;;;;61.87;28.33;;;;;;;5.15;90.55;99187.47;5046374;28;20878;-88
2021/12/27 03:12:11;;;;;;;52.10;27.27;;;;;;;5.15;90.84;99193.66;5055695;28;20393;-87
2021/12/27 03:14:36;;;;;;;62.80;28.63;;;;;;;5.15;90.61;99187.47;5048209;28;20913;-87
2021/12/27 03:17:02;;;;;;;67.83;27.50;;;;;;;5.15;90.16;99196.34;5056152;28;20397;-87
2021/12/27 03:19:27;;;;;;;45.80;27.48;;;;;;;5.18;90.66;99192.34;5041877;28;20962;-87
2021/12/27 03:21:53;;;;;;;51.10;28.17;;;;;;;5.15;90.35;99190.16;5041630;28;20480;-87
2021/12/27 03:24:18;;;;;;;42.73;25.73;;;;;;;5.17;90.72;99198.81;5048191;28;20567;-86
2021/12/27 03:26:43;;;;;;;48.03;27.17;;;;;;;5.19;90.29;99194.81;5058462;28;20417;-87
2021/12/27 03:29:09;;;;;;;42.80;26.63;;;;;;;5.18;90.53;99181.63;5066183;28;20770;-88
2021/12/27 03:31:37;;;;;;;40.10;23.83;;;;;;;5.19;90.64;99180.56;5052529;28;20874;-87
2021/12/27 03:34:03;;;;;;;43.75;25.85;;;;;;;5.21;90.20;99181.13;5057419;28;20400;-86
2021/12/27 03:36:29;;;;;;;46.55;27.65;;;;;;;5.21;90.43;99179.25;5047807;28;20450;-87
2021/12/27 03:38:54;;;;;;;45.83;27.70;;;;;;;5.22;90.07;99180.09;5063098;28;20407;-87
2021/12/27 03:41:23;;;;;;;39.13;24.37;;;;;;;5.27;90.03;99187.44;5051951;28;20418;-88
2021/12/27 03:43:48;;;;;;;42.17;25.60;;;;;;;5.26;90.60;99181.25;5057519;28;20405;-87
2021/12/27 03:46:14;;;;;;;40.40;24.83;;;;;;;5.27;90.42;99182.84;5050210;28;20798;-87
2021/12/27 03:48:40;;;;;;;61.90;39.50;;;;;;;5.34;90.15;99194.25;5058456;28;20895;-87
2021/12/27 03:51:06;;;;;;;47.93;28.30;;;;;;;5.38;89.92;99186.53;5042738;28;20405;-88
2021/12/27 03:53:32;;;;;;;38.67;24.30;;;;;;;5.37;89.65;99184.94;5046396;28;20907;-88
2021/12/27 03:55:57;;;;;;;36.63;23.58;;;;;;;5.36;89.89;99184.09;5063943;28;20402;-88
2021/12/27 03:58:59;;;;;;;39.42;25.50;;;;;;;5.37;89.80;99177.66;5046530;28;20871;-89
2021/12/27 04:01:17;;;;;;;44.50;27.50;;;;;;;5.37;89.97;99177.66;5049362;28;20419;-88
2021/12/27 04:03:44;;;;;;;42.67;25.45;;;;;;;5.36;90.16;99176.03;5045267;28;20884;-89
2021/12/27 04:06:11;;;;;;;39.13;26.02;;;;;;;5.38;90.07;99165.88;5051236;28;20405;-88
2021/12/27 04:08:37;;;;;;;41.75;26.17;;;;;;;5.40;89.99;99169.09;5066516;28;20407;-90
2021/12/27 04:11:02;;;;;;;38.92;24.63;;;;;;;5.39;90.25;99170.19;5052968;28;20953;-88
2021/12/27 04:13:28;;;;;;;36.28;24.50;;;;;;;5.40;90.18;99176.38;5060499;28;20398;-87
2021/12/27 04:15:53;;;;;;;38.27;24.50;;;;;;;5.41;90.04;99170.75;5061242;28;20487;-87
2021/12/27 04:18:19;;;;;;;37.93;23.83;;;;;;;5.40;89.80;99171.78;5070231;28;20392;-88
2021/12/27 04:20:45;;;;;;;37.15;23.73;;;;;;;5.41;89.68;99169.94;5055273;28;20412;-88
2021/12/27 04:23:11;;;;;;;41.42;25.90;;;;;;;5.41;89.80;99168.06;5044624;28;20502;-88
2021/12/27 04:25:38;;;;;;;42.73;26.03;;;;;;;5.39;90.07;99158.63;5062439;28;20395;-88
2021/12/27 04:28:04;;;;;;;39.38;25.05;;;;;;;5.37;90.31;99164.22;5058717;28;20387;-88
2021/12/27 04:30:29;;;;;;;38.65;25.23;;;;;;;5.36;90.18;99159.94;5051774;28;20800;-89
2021/12/27 04:32:54;;;;;;;38.27;24.90;;;;;;;5.37;90.47;99168.81;5047083;28;20395;-89
2021/12/27 04:35:21;;;;;;;35.80;23.90;;;;;;;5.39;90.19;99164.81;5055047;28;20880;-89
2021/12/27 04:37:48;;;;;;;37.22;24.58;;;;;;;5.34;90.64;99158.53;5054208;28;20395;-88
2021/12/27 04:40:15;;;;;;;35.25;24.35;;;;;;;5.33;90.54;99162.28;5052218;28;20417;-88
2021/12/27 04:42:45;;;;;;;38.35;25.02;;;;;;;5.34;90.53;99153.16;5043980;28;20405;-88
2021/12/27 04:45:14;;;;;;;42.97;26.17;;;;;;;5.35;91.00;99152.09;5062662;28;20399;-88
2021/12/27 04:47:40;;;;;;;43.80;26.83;;;;;;;5.37;90.80;99153.47;5058412;28;20951;-88
2021/12/27 04:50:06;;;;;;;43.05;27.15;;;;;;;5.39;90.89;99156.75;5051570;28;20962;-88
2021/12/27 04:52:31;;;;;;;38.88;25.60;;;;;;;5.42;90.64;99153.59;5054268;28;20394;-88
2021/12/27 04:54:56;;;;;;;36.73;23.53;;;;;;;5.45;90.92;99154.97;5050866;28;20433;-89
2021/12/27 04:57:22;;;;;;;32.97;22.87;;;;;;;5.46;90.46;99152.03;5047688;28;20464;-89
2021/12/27 04:59:47;;;;;;;32.58;23.33;;;;;;;5.46;91.21;99141.28;5059660;28;20402;-88
2021/12/27 05:02:12;;;;;;;30.63;22.20;;;;;;;5.50;90.08;99136.25;5041729;28;20403;-88
2021/12/27 05:04:38;;;;;;;35.77;23.93;;;;;;;5.45;90.98;99131.59;5055458;28;20764;-88
2021/12/27 05:07:03;;;;;;;33.27;23.00;;;;;;;5.44;90.44;99132.66;5049204;28;20436;-88
2021/12/27 05:09:28;;;;;;;33.13;22.80;;;;;;;5.44;90.92;99131.81;5054820;28;20401;-89
2021/12/27 05:11:53;;;;;;;40.03;25.37;;;;;;;5.45;91.31;99136.97;5045862;28;20419;-88
2021/12/27 05:14:19;;;;;;;33.93;23.47;;;;;;;5.46;90.79;99132.41;5044529;28;20407;-88
2021/12/27 05:16:44;;;;;;;37.37;24.13;;;;;;;5.47;90.89;99129.47;5053846;28;20407;-88
2021/12/27 05:19:10;;;;;;;32.50;21.80;;;;;;;5.51;90.41;99121.75;5051514;28;20419;-88
2021/12/27 05:21:35;;;;;;;42.53;25.10;;;;;;;5.52;90.41;99123.38;5045127;28;20853;-88
2021/12/27 05:24:01;;;;;;;32.03;22.17;;;;;;;5.52;90.62;99115.31;5066359;28;20453;-87
2021/12/27 05:26:26;;;;;;;38.08;24.67;;;;;;;5.52;90.89;99120.69;5062193;28;20398;-88
2021/12/27 05:28:51;;;;;;;34.33;23.63;;;;;;;5.52;90.99;99110.75;5047889;28;20416;-87
2021/12/27 05:31:16;;;;;;;30.83;22.73;;;;;;;5.50;90.64;99110.16;5067904;28;20434;-87
2021/12/27 05:33:42;;;;;;;35.20;22.67;;;;;;;5.47;90.53;99099.91;5049239;28;20473;-87
2021/12/27 05:36:07;;;;;;;29.58;21.55;;;;;;;5.48;91.18;99106.09;5054772;28;20395;-87
2021/12/27 05:38:33;;;;;;;35.88;22.88;;;;;;;5.45;90.71;99102.03;5069490;28;20421;-87
2021/12/27 05:40:58;;;;;;;33.77;22.47;;;;;;;5.46;91.07;99101.00;5067678;28;20403;-87
2021/12/27 05:43:24;;;;;;;34.87;22.83;;;;;;;5.47;90.87;99102.59;5044881;28;20414;-87
2021/12/27 05:45:49;;;;;;;33.33;22.13;;;;;;;5.49;90.72;99099.69;5049976;28;20519;-86
2021/12/27 05:48:15;;;;;;;29.77;20.70;;;;;;;5.50;90.62;99099.44;5060624;28;20388;-88
2021/12/27 05:50:42;;;;;;;29.13;20.65;;;;;;;5.50;90.78;99101.31;5050999;28;20403;-87
2021/12/27 05:53:07;;;;;;;38.00;23.77;;;;;;;5.58;90.59;99103.59;5044096;28;20406;-87
2021/12/27 05:55:33;;;;;;;34.22;22.73;;;;;;;5.60;90.23;99096.91;5050175;28;20543;-87
2021/12/27 05:57:58;;;;;;;37.37;24.07;;;;;;;5.53;90.92;99092.78;5058687;28;20417;-87
2021/12/27 06:00:24;;;;;;;35.63;23.17;;;;;;;5.51;90.68;99092.19;5053735;28;20401;-88
2021/12/27 06:02:51;;;;;;;31.80;22.70;;;;;;;5.49;90.91;99087.06;5054610;28;20489;-87
2021/12/27 06:05:17;;;;;;;38.05;25.35;;;;;;;5.46;90.93;99084.06;5041015;28;20478;-87
2021/12/27 06:07:43;;;;;;;36.03;24.23;;;;;;;5.46;91.09;99076.81;5033580;28;20468;-88
2021/12/27 06:10:09;;;;;;;36.80;24.60;;;;;;;5.48;91.41;99084.63;5039258;28;20768;-88
2021/12/27 06:12:34;;;;;;;36.38;25.38;;;;;;;5.49;91.26;99083.56;5050611;28;20736;-87
2021/12/27 06:15:00;;;;;;;40.33;24.63;;;;;;;5.50;91.23;99085.19;5048645;28;20453;-88
2021/12/27 06:17:25;;;;;;;33.33;22.63;;;;;;;5.51;91.21;99079.56;5062133;28;20397;-88
2021/12/27 06:19:51;;;;;;;39.10;24.23;;;;;;;5.50;90.65;99085.19;5058666;28;20481;-86
2021/12/27 06:22:17;;;;;;;38.95;24.73;;;;;;;5.45;91.11;99080.56;5063740;28;20396;-87
2021/12/27 06:24:42;;;;;;;37.95;26.27;;;;;;;5.44;91.17;99078.09;5050561;28;20419;-88
2021/12/27 06:27:08;;;;;;;38.07;24.90;;;;;;;5.43;91.16;99081.88;5063503;28;20841;-88
2021/12/27 06:29:33;;;;;;;38.97;24.90;;;;;;;5.40;91.12;99085.03;5057525;28;20489;-87
2021/12/27 06:31:58;;;;;;;36.93;23.60;;;;;;;5.39;91.17;99084.22;5067720;28;20452;-88
2021/12/27 06:34:24;;;;;;;41.80;25.87;;;;;;;5.39;91.51;99080.72;5048963;28;20901;-87
2021/12/27 06:36:49;;;;;;;35.90;24.10;;;;;;;5.39;91.69;99078.84;5019127;28;20428;-87
2021/12/27 06:39:14;;;;;;;37.20;24.30;;;;;;;5.38;91.38;99079.91;5052909;28;20422;-87
2021/12/27 06:41:40;;;;;;;38.80;24.63;;;;;;;5.41;91.37;99076.72;5050840;28;20423;-86
2021/12/27 06:44:05;;;;;;;35.10;23.30;;;;;;;5.42;91.50;99075.66;5049100;28;20407;-86
2021/12/27 06:46:30;;;;;;;35.90;24.10;;;;;;;5.42;91.97;99077.53;5045691;28;20402;-87
2021/12/27 06:48:56;;;;;;;34.17;23.20;;;;;;;5.42;91.38;99078.34;5062487;28;20402;-88
2021/12/27 06:51:21;;;;;;;36.63;23.42;;;;;;;5.45;91.31;99072.50;5036766;28;20490;-87
2021/12/27 06:53:47;;;;;;;34.67;23.23;;;;;;;5.44;91.30;99070.84;5047117;28;20393;-88
2021/12/27 06:56:12;;;;;;;36.53;24.70;;;;;;;5.47;91.16;99069.53;5044048;28;21399;-88
2021/12/27 06:58:37;;;;;;;42.93;26.57;;;;;;;5.47;91.24;99062.31;5044493;28;20409;-88
2021/12/27 07:01:04;;;;;;;39.87;25.60;;;;;;;5.51;91.49;99059.94;5043257;28;20411;-87
2021/12/27 07:03:29;;;;;;;35.20;23.67;;;;;;;5.52;91.15;99059.72;5042653;28;20413;-87
2021/12/27 07:05:55;;;;;;;39.97;25.90;;;;;;;5.49;91.06;99059.38;5047769;28;20385;-87
2021/12/27 07:08:22;;;;;;;38.83;25.47;;;;;;;5.45;90.88;99056.38;5037980;28;20409;-88
2021/12/27 07:10:48;;;;;;;41.33;25.95;;;;;;;5.43;91.58;99063.88;5039691;28;20497;-87
2021/12/27 07:13:13;;;;;;;51.90;31.42;;;;;;;5.44;91.48;99057.41;5058239;28;20383;-88
2021/12/27 07:15:41;;;;;;;46.30;26.93;;;;;;;5.44;91.55;99061.97;5046818;28;20513;-87
2021/12/27 07:18:16;;;;;;;49.13;32.45;;;;;;;5.44;91.56;99057.41;5041465;28;20405;-86
2021/12/27 07:20:41;;;;;;;43.20;28.13;;;;;;;5.43;90.98;99057.69;5041191;28;20417;-87
2021/12/27 07:23:08;;;;;;;42.40;25.63;;;;;;;5.44;91.41;99059.28;5057957;28;20403;-87
2021/12/27 07:25:33;;;;;;;41.20;26.00;;;;;;;5.42;91.28;99051.50;5047096;28;20825;-89
2021/12/27 07:27:58;;;;;;;39.70;25.13;;;;;;;5.45;91.43;99050.19;5048719;28;20421;-88
2021/12/27 07:30:25;;;;;;;39.63;25.37;;;;;;;5.46;91.31;99052.63;5041497;28;20433;-88
2021/12/27 07:32:50;;;;;;;40.78;25.27;;;;;;;5.44;91.48;99054.72;5047036;28;20405;-84
2021/12/27 07:35:15;;;;;;;42.27;24.60;;;;;;;5.38;91.08;99058.41;5056951;28;20387;-85
2021/12/27 07:37:41;;;;;;;41.75;24.98;;;;;;;5.35;91.44;99060.75;5044259;28;20904;-88
2021/12/27 07:40:08;;;;;;;42.35;26.05;;;;;;;5.32;91.29;99066.63;5045991;28;20745;-85
2021/12/27 07:42:34;;;;;;;55.45;30.67;;;;;;;5.33;91.14;99074.47;5044184;28;20894;-85
2021/12/27 07:44:59;;;;;;;45.00;28.57;;;;;;;5.33;91.41;99076.31;5054392;28;20430;-85
2021/12/27 07:47:24;;;;;;;51.07;30.43;;;;;;;5.37;91.84;99085.53;5055833;28;20462;-87
2021/12/27 07:49:50;;;;;;;52.47;33.58;;;;;;;5.45;91.81;99082.41;5043874;28;20403;-91
2021/12/27 07:52:15;;;;;;;51.37;31.57;;;;;;;5.55;91.45;99077.19;5040644;28;20521;-85
2021/12/27 07:54:40;;;;;;;47.07;31.77;;;;;;;5.57;90.90;99070.50;5045151;28;20531;-88
2021/12/27 07:57:06;;;;;;;60.10;36.25;;;;;;;5.61;90.98;99074.34;5037411;28;20421;-88
2021/12/27 07:59:31;;;;;;;56.87;36.43;;;;;;;5.52;91.15;99070.47;5054764;28;20408;-87
2021/12/27 08:01:57;;;;;;;50.70;33.17;;;;;;;5.49;90.89;99067.44;5053910;28;20417;-87
2021/12/27 08:04:23;;;;;;;57.93;37.90;;;;;;;5.47;91.36;99072.22;5044055;28;20428;-85
2021/12/27 08:06:49;;;;;;;59.47;37.67;;;;;;;5.54;91.06;99079.06;5045422;28;20409;-90
2021/12/27 08:09:14;;;;;;;52.13;34.22;;;;;;;5.66;91.39;99070.94;5046512;28;20410;-86
2021/12/27 08:11:39;;;;;;;52.00;33.23;;;;;;;5.80;91.45;99072.19;5044926;28;20411;-91
2021/12/27 08:14:05;;;;;;;41.37;28.63;;;;;;;5.92;91.24;99064.88;5045148;28;20397;-88
2021/12/27 08:16:30;;;;;;;44.37;28.30;;;;;;;5.98;90.68;99065.75;5052016;28;20507;-94
2021/12/27 08:18:56;;;;;;;40.07;26.00;;;;;;;6.01;91.05;99062.56;5053053;28;20406;-91
2021/12/27 08:21:24;;;;;;;34.05;23.83;;;;;;;6.10;91.00;99055.69;5039662;28;20435;-90
2021/12/27 08:23:49;;;;;;;34.08;24.13;;;;;;;6.19;90.19;99056.91;5043945;28;20434;-87
2021/12/27 08:26:15;;;;;;;31.85;22.95;;;;;;;6.25;89.74;99053.19;5044503;28;20430;-91
2021/12/27 08:28:42;;;;;;;34.17;23.25;;;;;;;6.25;89.91;99047.81;5046851;28;20421;-88
2021/12/27 08:31:07;;;;;;;30.00;21.10;;;;;;;6.22;89.42;99042.94;5044443;28;20389;-87
2021/12/27 08:33:33;;;;;;;34.05;22.67;;;;;;;6.17;89.71;99045.56;5041824;28;20468;-87
2021/12/27 08:35:58;;;;;;;34.30;23.17;;;;;;;6.20;90.13;99045.88;5046845;28;20421;-89
2021/12/27 08:38:23;;;;;;;37.50;24.03;;;;;;;6.25;89.98;99040.56;5038909;28;20425;-89
2021/12/27 08:40:49;;;;;;;30.07;21.87;;;;;;;6.33;90.08;99050.06;5040882;28;20417;-90
2021/12/27 08:43:14;;;;;;;33.10;22.47;;;;;;;6.41;89.93;99052.31;5049937;28;20409;-89
2021/12/27 08:45:39;;;;;;;34.17;22.90;;;;;;;6.60;89.86;99056.28;5058448;28;20393;-87
2021/12/27 08:48:05;;;;;;;29.80;21.08;;;;;;;6.80;89.43;99053.00;5048048;28;20810;-85
2021/12/27 08:50:30;;;;;;;27.90;20.67;;;;;;;6.93;88.69;99057.16;5039668;28;20823;-87
2021/12/27 08:52:56;;;;;;;28.43;21.50;;;;;;;6.94;88.74;99054.22;5042489;28;20425;-85
2021/12/27 08:55:21;;;;;;;27.10;20.63;;;;;;;6.99;88.71;99058.81;5034879;28;20535;-87
2021/12/27 08:57:47;;;;;;;27.77;20.80;;;;;;;7.06;88.35;99052.16;5040876;28;20499;-85
2021/12/27 09:00:15;;;;;;;23.20;19.08;;;;;;;7.14;87.75;99051.69;5048845;28;20496;-86
2021/12/27 09:02:41;;;;;;;26.88;19.67;;;;;;;7.27;87.55;99050.47;5038250;28;20417;-88
2021/12/27 09:05:07;;;;;;;26.60;18.63;;;;;;;7.24;87.38;99042.88;5047330;28;20487;-89
2021/12/27 09:07:33;;;;;;;18.80;16.17;;;;;;;7.40;87.47;99051.91;5043834;28;20453;-90
2021/12/27 09:09:58;;;;;;;18.17;15.57;;;;;;;8.06;85.84;99050.41;5047412;28;20432;-90
2021/12/27 09:12:24;;;;;;;17.03;15.13;;;;;;;8.50;83.67;99042.78;5047743;28;20407;-86
2021/12/27 09:14:50;;;;;;;16.77;14.93;;;;;;;8.39;83.52;99039.25;5040631;28;20425;-89
2021/12/27 09:17:16;;;;;;;17.42;14.10;;;;;;;8.11;84.51;99036.94;5045585;28;20489;-87
2021/12/27 09:19:42;;;;;;;16.83;14.13;;;;;;;7.96;85.27;99036.88;5042602;28;20963;-88
2021/12/27 09:22:09;;;;;;;15.80;13.65;;;;;;;7.80;85.00;99036.00;5060598;28;20937;-90
2021/12/27 09:24:34;;;;;;;18.80;15.10;;;;;;;7.66;85.90;99034.81;5057750;28;20408;-86
2021/12/27 09:26:59;;;;;;;17.93;14.57;;;;;;;7.67;86.41;99033.75;5056528;28;20472;-93
2021/12/27 09:29:25;;;;;;;18.10;14.73;;;;;;;7.64;86.37;99024.28;5051623;28;20406;-86
2021/12/27 09:31:50;;;;;;;19.90;15.68;;;;;;;7.74;86.48;99018.94;5043672;28;20966;-90
2021/12/27 09:34:17;;;;;;;20.67;16.57;;;;;;;7.87;86.36;99019.56;5045872;28;20486;-90
2021/12/27 09:36:42;;;;;;;23.42;17.58;;;;;;;7.79;86.02;99013.59;5054053;28;20761;-89
2021/12/27 09:39:08;;;;;;;22.57;16.23;;;;;;;7.72;86.81;99010.31;5041652;28;20413;-89
2021/12/27 09:41:33;;;;;;;17.93;15.40;;;;;;;7.83;87.34;99008.50;5059098;28;20452;-89
2021/12/27 09:44:01;;;;;;;16.07;14.13;;;;;;;8.15;87.17;98997.56;5049688;28;20407;-89
2021/12/27 09:46:26;;;;;;;16.98;13.18;;;;;;;8.38;87.29;98993.63;5056771;28;20396;-88
2021/12/27 09:48:54;;;;;;;13.57;12.27;;;;;;;8.70;87.15;98999.63;5048255;28;20908;-89
2021/12/27 09:51:20;;;;;;;14.40;11.20;;;;;;;9.24;86.36;98991.81;5032552;28;20901;-90
2021/12/27 09:53:45;;;;;;;12.77;10.82;;;;;;;9.85;84.66;98987.09;5042609;28;20411;-90
2021/12/27 09:56:19;;;;;;;12.15;9.32;;;;;;;10.21;83.81;98987.78;5059501;28;20397;-88
2021/12/27 09:58:44;;;;;;;9.82;8.35;;;;;;;10.66;83.21;98973.19;5046904;28;20401;-91
2021/12/27 10:01:10;;;;;;;8.75;7.95;;;;;;;10.99;80.44;98977.84;5063059;28;20924;-89
2021/12/27 10:03:48;;;;;;;10.48;8.48;;;;;;;11.25;79.48;98970.28;5062355;28;20752;-90
2021/12/27 10:06:15;;;;;;;8.67;7.77;;;;;;;11.17;77.80;98970.88;5046381;28;20452;-90
2021/12/27 10:08:45;;;;;;;11.77;9.52;;;;;;;10.80;78.60;98966.84;5062387;28;20788;-89
2021/12/27 10:11:32;;;;;;;11.93;8.93;;;;;;;10.52;78.80;98964.88;5045619;28;20415;-90
2021/12/27 10:14:02;;;;;;;9.00;8.13;;;;;;;10.04;79.98;98971.06;5054460;28;20413;-90
2021/12/27 10:16:28;;;;;;;8.20;7.40;;;;;;;9.63;81.42;98964.97;5046783;28;20399;-90
2021/12/27 10:19:00;;;;;;;9.57;8.68;;;;;;;9.49;82.01;98972.03;5053412;28;20402;-89
2021/12/27 10:21:26;;;;;;;8.57;7.75;;;;;;;9.33;82.77;98958.56;5043340;28;20419;-90
2021/12/27 10:24:14;;;;;;;7.28;6.68;;;;;;;9.23;83.56;98963.16;5066076;28;20388;-90
2021/12/27 10:26:42;;;;;;;7.85;7.03;;;;;;;9.56;82.87;98956.34;5042737;28;20836;-89
2021/12/27 10:29:18;;;;;;;8.45;7.65;;;;;;;9.95;80.41;98954.59;5061343;28;20500;-90
2021/12/27 10:31:54;;;;;;;8.25;7.50;;;;;;;9.81;79.98;98950.88;5049454;28;20450;-89
2021/12/27 10:34:21;;;;;;;8.77;7.38;;;;;;;9.53;80.42;98943.38;5041045;28;20403;-91
2021/12/27 10:37:24;;;;;;;8.95;7.72;;;;;;;9.34;81.49;98935.84;5045618;28;20409;-89
2021/12/27 10:40:01;;;;;;;8.82;7.80;;;;;;;9.23;82.41;98936.13;5029361;28;20423;-89
2021/12/27 10:42:37;;;;;;;11.07;9.05;;;;;;;9.26;82.87;98924.78;5049819;28;20959;-91
2021/12/27 10:45:20;;;;;;;13.57;9.73;;;;;;;9.45;82.78;98928.50;5059729;28;20426;-90
2021/12/27 10:48:02;;;;;;;9.80;8.80;;;;;;;9.69;82.51;98931.41;5064649;28;20406;-90
2021/12/27 10:50:31;;;;;;;9.98;7.53;;;;;;;9.83;81.74;98922.44;5053156;28;20952;-89
2021/12/27 10:53:00;;;;;;;12.25;8.10;;;;;;;9.99;81.23;98920.47;5059291;28;20779;-90
2021/12/27 10:55:34;;;;;;;9.98;8.50;;;;;;;10.10;80.90;98927.47;5045194;28;20400;-90
2021/12/27 10:58:27;;;;;;;10.85;8.90;;;;;;;10.21;80.63;98933.63;5046072;28;20395;-89
2021/12/27 11:01:11;;;;;;;9.68;8.70;;;;;;;10.06;81.07;98931.00;5057236;28;20421;-89
2021/12/27 11:03:39;;;;;;;9.13;8.30;;;;;;;10.04;81.04;98927.75;5045279;28;20401;-89
2021/12/27 11:06:08;;;;;;;8.75;7.90;;;;;;;9.94;81.39;98928.63;5043015;28;20401;-90
2021/12/27 11:08:35;;;;;;;9.85;7.60;;;;;;;9.93;81.53;98926.19;5043343;28;20414;-90
2021/12/27 11:11:01;;;;;;;8.90;8.10;;;;;;;9.83;81.57;98927.84;5037850;28;20452;-89
2021/12/27 11:13:28;;;;;;;10.90;8.57;;;;;;;9.70;82.07;98924.94;5064146;28;20408;-88
2021/12/27 11:15:55;;;;;;;8.30;7.30;;;;;;;9.56;82.64;98921.19;5046431;28;20414;-89
2021/12/27 11:18:20;;;;;;;9.13;7.97;;;;;;;9.57;83.35;98926.31;5060689;28;20408;-89
2021/12/27 11:20:50;;;;;;;8.53;7.73;;;;;;;9.52;83.89;98923.63;5054186;28;20429;-90
2021/12/27 11:23:16;;;;;;;9.35;8.45;;;;;;;9.48;83.91;98925.28;5052738;28;20439;-90
2021/12/27 11:25:44;;;;;;;12.50;8.33;;;;;;;9.42;83.97;98922.88;5041172;28;20485;-89